createdAt,value
2022-11-14T00:01:32.721Z,12.95
2022-11-14T00:04:19.346Z,12.94
2022-11-14T00:07:05.319Z,12.94
2022-11-14T00:09:51.540Z,12.94
2022-11-14T00:12:37.677Z,12.91
2022-11-14T00:15:24.018Z,12.92
2022-11-14T00:18:09.761Z,12.94
2022-11-14T00:20:56.103Z,12.91
2022-11-14T00:23:41.753Z,12.90
2022-11-14T00:26:28.235Z,12.89
2022-11-14T00:29:15.848Z,12.90
2022-11-14T00:32:01.901Z,12.92
2022-11-14T00:34:48.670Z,12.93
2022-11-14T00:37:35.717Z,12.94
2022-11-14T00:40:21.454Z,12.93
2022-11-14T00:43:07.699Z,12.90
2022-11-14T00:45:53.662Z,12.86
2022-11-14T00:48:40.230Z,12.82
2022-11-14T00:51:26.046Z,12.76
2022-11-14T00:54:12.758Z,12.68
2022-11-14T00:56:58.699Z,12.62
2022-11-14T00:59:44.798Z,12.58
2022-11-14T01:02:31.160Z,12.48
2022-11-14T01:05:17.680Z,12.46
2022-11-14T01:08:03.485Z,12.45
2022-11-14T01:10:51.331Z,12.44
2022-11-14T01:13:37.809Z,12.45
2022-11-14T01:16:24.180Z,12.45
2022-11-14T01:19:10.051Z,12.45
2022-11-14T01:21:56.235Z,12.46
2022-11-14T01:24:42.225Z,12.43
2022-11-14T01:27:31.995Z,12.35
2022-11-14T01:30:18.338Z,12.28
2022-11-14T01:33:06.111Z,12.22
2022-11-14T01:35:52.259Z,12.23
2022-11-14T01:38:38.572Z,12.23
2022-11-14T01:41:25.573Z,12.25
2022-11-14T01:44:45.812Z,12.26
2022-11-14T01:47:33.685Z,12.27
2022-11-14T01:50:19.941Z,12.28
2022-11-14T01:53:06.220Z,12.31
2022-11-14T01:55:55.383Z,12.31
2022-11-14T01:58:50.585Z,12.31
2022-11-14T02:01:45.184Z,12.35
2022-11-14T02:04:41.196Z,12.33
2022-11-14T02:07:31.189Z,12.32
2022-11-14T02:10:21.224Z,12.34
2022-11-14T02:13:08.551Z,12.37
2022-11-14T02:15:54.751Z,12.38
2022-11-14T02:18:40.942Z,12.39
2022-11-14T02:21:27.210Z,12.41
2022-11-14T02:24:14.354Z,12.39
2022-11-14T02:27:00.043Z,12.39
2022-11-14T02:29:46.274Z,12.39
2022-11-14T02:32:45.018Z,12.37
2022-11-14T02:35:38.732Z,12.37
2022-11-14T02:38:24.806Z,12.31
2022-11-14T02:41:11.092Z,12.27
2022-11-14T02:43:57.051Z,12.22
2022-11-14T02:46:43.500Z,12.14
2022-11-14T02:49:29.524Z,12.08
2022-11-14T02:52:15.526Z,12.08
2022-11-14T02:55:02.078Z,12.07
2022-11-14T02:57:48.114Z,12.02
2022-11-14T03:00:36.722Z,11.94
2022-11-14T03:03:27.268Z,11.85
2022-11-14T03:06:13.745Z,11.79
2022-11-14T03:09:00.144Z,11.79
2022-11-14T03:11:45.849Z,11.77
2022-11-14T03:14:32.301Z,11.73
2022-11-14T03:17:18.465Z,11.69
2022-11-14T03:20:06.077Z,11.60
2022-11-14T03:22:52.170Z,11.57
2022-11-14T03:25:38.487Z,11.55
2022-11-14T03:28:24.273Z,11.52
2022-11-14T03:31:12.630Z,11.46
2022-11-14T03:33:58.816Z,11.45
2022-11-14T03:36:45.439Z,11.42
2022-11-14T03:39:31.236Z,11.35
2022-11-14T03:42:17.216Z,11.30
2022-11-14T03:45:03.869Z,11.26
2022-11-14T03:47:49.940Z,11.20
2022-11-14T03:50:36.205Z,11.17
2022-11-14T03:53:22.967Z,11.16
2022-11-14T03:56:08.916Z,11.18
2022-11-14T03:58:55.029Z,11.18
2022-11-14T04:01:41.048Z,11.16
2022-11-14T04:04:27.274Z,11.11
2022-11-14T04:07:13.305Z,11.07
2022-11-14T04:09:59.723Z,11.08
2022-11-14T04:12:54.161Z,11.08
2022-11-14T04:15:40.508Z,11.04
2022-11-14T04:18:27.406Z,10.97
2022-11-14T04:21:14.210Z,10.95
2022-11-14T04:24:00.284Z,10.90
2022-11-14T04:26:46.397Z,10.83
2022-11-14T04:29:32.150Z,10.78
2022-11-14T04:32:18.398Z,10.75
2022-11-14T04:35:04.778Z,10.71
2022-11-14T04:37:51.075Z,10.67
2022-11-14T04:40:36.993Z,10.67
2022-11-14T04:43:23.249Z,10.62
2022-11-14T04:46:09.157Z,10.58
2022-11-14T04:48:55.327Z,10.56
2022-11-14T04:51:41.373Z,10.55
2022-11-14T04:54:27.575Z,10.56
2022-11-14T04:57:14.735Z,10.53
2022-11-14T05:00:00.997Z,10.47
2022-11-14T05:02:46.976Z,10.44
2022-11-14T05:05:35.959Z,10.44
2022-11-14T05:08:25.278Z,10.38
2022-11-14T05:11:16.509Z,10.34
2022-11-14T05:14:03.397Z,10.37
2022-11-14T05:16:49.727Z,10.36
2022-11-14T05:19:35.660Z,10.32
2022-11-14T05:22:22.153Z,10.30
2022-11-14T05:25:08.854Z,10.28
2022-11-14T05:27:55.680Z,10.23
2022-11-14T05:30:41.586Z,10.21
2022-11-14T05:33:27.690Z,10.21
2022-11-14T05:36:16.926Z,10.18
2022-11-14T05:39:03.562Z,10.16
2022-11-14T05:41:49.657Z,10.14
2022-11-14T05:44:35.910Z,10.14
2022-11-14T05:47:21.817Z,10.13
2022-11-14T05:50:08.507Z,10.13
2022-11-14T05:52:54.146Z,10.14
2022-11-14T05:55:40.063Z,10.14
2022-11-14T05:58:26.240Z,10.14
2022-11-14T06:01:17.188Z,10.16
2022-11-14T06:04:06.762Z,10.13
2022-11-14T06:06:53.157Z,10.15
2022-11-14T06:09:39.355Z,10.28
2022-11-14T06:12:25.989Z,10.44
2022-11-14T06:15:12.000Z,10.61
2022-11-14T06:17:58.443Z,10.69
2022-11-14T06:20:44.663Z,10.75
2022-11-14T06:23:30.986Z,10.78
2022-11-14T06:26:25.665Z,10.79
2022-11-14T06:29:11.839Z,10.77
2022-11-14T06:31:57.972Z,10.81
2022-11-14T06:34:44.214Z,10.79
2022-11-14T06:37:33.543Z,10.77
2022-11-14T06:40:20.721Z,10.81
2022-11-14T06:43:07.062Z,10.87
2022-11-14T06:45:56.765Z,10.89
2022-11-14T06:48:43.979Z,10.93
2022-11-14T06:51:30.439Z,10.93
2022-11-14T06:54:16.163Z,10.97
2022-11-14T06:57:02.319Z,10.99
2022-11-14T06:59:48.493Z,11.05
2022-11-14T07:02:34.579Z,11.12
2022-11-14T07:05:20.326Z,11.14
2022-11-14T07:08:06.715Z,11.18
2022-11-14T07:10:53.233Z,11.21
2022-11-14T07:13:39.687Z,11.27
2022-11-14T07:16:37.619Z,11.31
2022-11-14T07:19:23.882Z,11.34
2022-11-14T07:22:10.386Z,11.39
2022-11-14T07:24:56.562Z,11.37
2022-11-14T07:27:42.444Z,11.41
2022-11-14T07:30:28.593Z,11.45
2022-11-14T07:33:14.657Z,11.52
2022-11-14T07:36:01.295Z,11.56
2022-11-14T07:38:47.694Z,11.61
2022-11-14T07:41:34.164Z,11.65
2022-11-14T07:44:20.018Z,11.68
2022-11-14T07:47:06.230Z,11.69
2022-11-14T07:49:52.297Z,11.73
2022-11-14T07:52:38.752Z,11.80
2022-11-14T07:55:24.718Z,11.86
2022-11-14T07:58:11.486Z,11.90
2022-11-14T08:01:02.235Z,11.91
2022-11-14T08:03:48.859Z,11.92
2022-11-14T08:06:35.219Z,11.92
2022-11-14T08:09:23.145Z,11.94
2022-11-14T08:12:08.975Z,11.96
2022-11-14T08:14:55.478Z,12.02
2022-11-14T08:17:41.605Z,12.01
2022-11-14T08:20:28.529Z,12.04
2022-11-14T08:23:15.113Z,12.09
2022-11-14T08:26:01.881Z,12.14
2022-11-14T08:28:47.874Z,12.16
2022-11-14T08:31:34.256Z,12.22
2022-11-14T08:34:22.475Z,12.29
2022-11-14T08:37:08.755Z,12.31
2022-11-14T08:39:54.878Z,12.31
2022-11-14T08:42:41.400Z,12.38
2022-11-14T08:45:27.539Z,12.44
2022-11-14T08:48:14.275Z,12.49
2022-11-14T08:51:06.187Z,12.57
2022-11-14T08:53:53.088Z,12.65
2022-11-14T08:56:39.294Z,12.73
2022-11-14T08:59:25.426Z,12.79
2022-11-14T09:02:16.234Z,12.86
2022-11-14T09:05:02.658Z,12.95
2022-11-14T09:07:48.877Z,13.07
2022-11-14T09:10:37.369Z,13.17
2022-11-14T09:13:23.689Z,13.30
2022-11-14T09:16:10.142Z,13.42
2022-11-14T09:18:56.505Z,13.55
2022-11-14T09:21:43.169Z,13.65
2022-11-14T09:24:30.008Z,13.76
2022-11-14T09:27:17.238Z,13.87
2022-11-14T09:30:06.016Z,13.97
2022-11-14T09:32:52.856Z,14.07
2022-11-14T09:35:39.093Z,14.15
2022-11-14T09:38:26.552Z,14.29
2022-11-14T09:41:33.881Z,14.42
2022-11-14T09:44:47.724Z,14.56
2022-11-14T09:47:42.860Z,14.68
2022-11-14T09:50:37.417Z,14.78
2022-11-14T09:53:52.944Z,14.88
2022-11-14T09:56:39.427Z,14.95
2022-11-14T09:59:26.634Z,15.03
2022-11-14T10:03:03.328Z,15.18
2022-11-14T10:06:08.628Z,15.30
2022-11-14T10:09:06.789Z,15.43
2022-11-14T10:12:36.450Z,15.53
2022-11-14T10:15:52.269Z,15.66
2022-11-14T10:19:30.854Z,15.79
2022-11-14T10:22:58.621Z,15.94
2022-11-14T10:26:19.927Z,16.06
2022-11-14T10:29:27.586Z,16.22
2022-11-14T10:32:22.370Z,16.31
2022-11-14T10:35:28.745Z,16.39
2022-11-14T10:39:07.306Z,16.50
2022-11-14T10:42:03.185Z,16.61
2022-11-14T10:45:10.619Z,16.73
2022-11-14T10:48:15.995Z,16.86
2022-11-14T10:51:34.866Z,16.99
2022-11-14T10:55:10.138Z,17.14
2022-11-14T10:57:58.017Z,17.32
2022-11-14T11:00:44.633Z,17.47
2022-11-14T11:03:59.255Z,17.70
2022-11-14T11:06:46.066Z,17.83
2022-11-14T11:09:51.493Z,17.98
2022-11-14T11:12:37.919Z,18.09
2022-11-14T11:15:32.283Z,18.22
2022-11-14T11:18:33.618Z,18.42
2022-11-14T11:21:23.420Z,18.59
2022-11-14T11:24:10.172Z,18.78
2022-11-14T11:27:29.222Z,18.97
2022-11-14T11:30:23.281Z,19.12
2022-11-14T11:33:22.412Z,19.27
2022-11-14T11:36:19.545Z,19.39
2022-11-14T11:39:05.617Z,19.52
2022-11-14T11:42:11.055Z,19.63
2022-11-14T11:45:04.157Z,19.66
2022-11-14T11:48:19.778Z,19.75
2022-11-14T11:51:14.145Z,19.91
2022-11-14T11:54:24.760Z,20.07
2022-11-14T11:57:21.403Z,20.19
2022-11-14T12:00:21.174Z,20.35
2022-11-14T12:03:14.387Z,20.56
2022-11-14T12:06:24.863Z,20.79
2022-11-14T12:09:22.218Z,20.99
2022-11-14T12:12:35.630Z,21.22
2022-11-14T12:16:24.665Z,21.46
2022-11-14T12:19:41.353Z,21.76
2022-11-14T12:22:46.734Z,21.89
2022-11-14T12:26:17.719Z,22.11
2022-11-14T12:29:12.857Z,22.31
2022-11-14T12:32:06.869Z,22.55
2022-11-14T12:34:53.547Z,22.73
2022-11-14T12:37:50.042Z,22.91
2022-11-14T12:40:48.387Z,23.04
2022-11-14T12:43:45.100Z,23.23
2022-11-14T12:47:05.853Z,23.43
2022-11-14T12:49:55.831Z,23.65
2022-11-14T12:52:42.922Z,23.79
2022-11-14T12:55:29.509Z,23.99
2022-11-14T12:58:24.794Z,24.12
2022-11-14T13:01:48.256Z,24.33
2022-11-14T13:04:57.846Z,24.46
2022-11-14T13:07:48.648Z,24.63
2022-11-14T13:10:42.034Z,24.76
2022-11-14T13:13:46.948Z,24.99
2022-11-14T13:16:52.060Z,25.15
2022-11-14T13:20:05.208Z,25.31
2022-11-14T13:22:51.430Z,25.41
2022-11-14T13:25:37.573Z,25.49
2022-11-14T13:28:38.693Z,25.54
2022-11-14T13:31:35.332Z,25.60
2022-11-14T13:34:37.397Z,25.67
2022-11-14T13:37:47.802Z,25.77
2022-11-14T13:41:11.785Z,25.91
2022-11-14T13:44:34.414Z,26.10
2022-11-14T13:48:16.281Z,26.28
2022-11-14T13:51:28.988Z,26.43
2022-11-14T13:54:18.252Z,26.60
2022-11-14T13:57:35.377Z,26.65
2022-11-14T14:00:21.779Z,26.76
2022-11-14T14:03:28.253Z,26.63
2022-11-14T14:07:05.405Z,26.24
2022-11-14T14:10:08.570Z,25.65
2022-11-14T14:13:23.423Z,24.98
2022-11-14T14:17:01.693Z,24.09
2022-11-14T14:20:18.742Z,23.39
2022-11-14T14:54:04.051Z,18.44
2022-11-14T14:57:02.842Z,18.23
2022-11-14T15:00:05.981Z,18.07
2022-11-14T15:02:56.616Z,17.89
2022-11-14T15:05:43.155Z,17.73
2022-11-14T15:08:31.950Z,17.59
2022-11-14T15:11:18.895Z,17.45
2022-11-14T15:14:05.208Z,17.29
2022-11-14T15:16:53.305Z,17.19
2022-11-14T15:19:45.748Z,17.11
2022-11-14T15:22:33.057Z,17.01
2022-11-14T15:25:20.440Z,16.92
2022-11-14T15:28:21.017Z,16.83
2022-11-14T15:31:17.184Z,16.71
2022-11-14T15:34:34.408Z,16.60
2022-11-14T15:37:22.851Z,16.48
2022-11-14T15:40:39.429Z,16.39
2022-11-14T15:43:50.619Z,16.27
2022-11-14T15:46:46.760Z,16.18
2022-11-14T15:49:33.822Z,16.08
2022-11-14T15:52:47.512Z,16.00
2022-11-14T15:55:33.496Z,15.91
2022-11-14T15:58:29.082Z,15.83
2022-11-14T16:01:23.938Z,15.77
2022-11-14T16:04:23.016Z,15.70
2022-11-14T16:07:14.696Z,15.65
2022-11-14T16:10:01.311Z,15.61
2022-11-14T16:12:52.255Z,15.55
2022-11-14T16:15:39.847Z,15.52
2022-11-14T16:18:25.718Z,15.51
2022-11-14T16:21:18.231Z,15.47
2022-11-14T16:24:05.839Z,15.42
2022-11-14T16:26:52.437Z,15.32
2022-11-14T16:29:38.510Z,15.25
2022-11-14T16:32:26.728Z,15.19
2022-11-14T16:35:14.785Z,15.14
2022-11-14T16:38:01.102Z,15.15
2022-11-14T16:40:47.239Z,15.14
2022-11-14T16:43:33.953Z,15.16
2022-11-14T16:46:19.783Z,15.17
2022-11-14T16:49:05.850Z,15.21
2022-11-14T16:51:52.433Z,15.27
2022-11-14T16:54:38.802Z,15.31
2022-11-14T16:57:25.304Z,15.34
2022-11-14T17:00:13.450Z,15.38
2022-11-14T17:02:59.541Z,15.38
2022-11-14T17:05:48.652Z,15.42
2022-11-14T17:08:34.740Z,15.45
2022-11-14T17:11:21.354Z,15.40
2022-11-14T17:14:07.629Z,15.36
2022-11-14T17:16:53.953Z,15.35
2022-11-14T17:19:45.921Z,15.33
2022-11-14T17:22:32.621Z,15.28
2022-11-14T17:25:18.894Z,15.24
2022-11-14T17:28:05.200Z,15.20
2022-11-14T17:30:51.259Z,15.13
2022-11-14T17:33:38.344Z,15.06
2022-11-14T17:36:29.109Z,15.01
2022-11-14T17:39:15.413Z,14.98
2022-11-14T17:42:01.275Z,14.94
2022-11-14T17:44:47.925Z,14.91
2022-11-14T17:47:33.711Z,14.89
2022-11-14T17:50:19.782Z,14.87
2022-11-14T17:53:06.631Z,14.82
2022-11-14T17:56:01.815Z,14.81
2022-11-14T17:58:51.141Z,14.77
2022-11-14T18:01:43.612Z,14.71
2022-11-14T18:04:31.802Z,14.73
2022-11-14T18:07:20.603Z,14.84
2022-11-14T18:10:07.181Z,14.92
2022-11-14T18:12:55.495Z,14.93
2022-11-14T18:15:41.439Z,14.91
2022-11-14T18:18:35.259Z,14.93
2022-11-14T18:21:31.781Z,14.93
2022-11-14T18:24:18.438Z,14.90
2022-11-14T18:27:04.358Z,14.86
2022-11-14T18:29:50.677Z,14.81
2022-11-14T18:32:36.582Z,14.71
2022-11-14T18:35:22.687Z,14.61
2022-11-14T18:38:08.525Z,14.62
2022-11-14T18:40:57.516Z,14.62
2022-11-14T18:43:45.128Z,14.57
2022-11-14T18:46:37.200Z,14.53
2022-11-14T18:49:28.395Z,14.61
2022-11-14T18:52:17.387Z,14.70
2022-11-14T18:55:08.420Z,14.71
2022-11-14T18:57:54.349Z,14.71
2022-11-14T19:00:40.317Z,14.70
2022-11-14T19:03:27.007Z,14.64
2022-11-14T19:06:14.046Z,14.55
2022-11-14T19:09:10.587Z,14.49
2022-11-14T19:12:15.660Z,14.47
2022-11-14T19:15:02.384Z,14.46
2022-11-14T19:17:49.032Z,14.39
2022-11-14T19:20:37.700Z,14.33
2022-11-14T19:23:24.216Z,14.29
2022-11-14T19:26:11.760Z,14.24
2022-11-14T19:29:06.487Z,14.14
2022-11-14T19:31:54.698Z,14.09
2022-11-14T19:34:46.810Z,14.06
2022-11-14T19:37:34.400Z,14.08
2022-11-14T19:40:20.757Z,14.11
2022-11-14T19:43:09.180Z,14.08
2022-11-14T19:46:00.133Z,14.00
2022-11-14T19:48:47.883Z,13.93
2022-11-14T19:51:34.734Z,13.90
2022-11-14T19:54:21.007Z,13.87
2022-11-14T19:57:06.962Z,13.80
2022-11-14T19:59:53.540Z,13.77
2022-11-14T20:02:40.619Z,13.74
2022-11-14T20:05:27.179Z,13.76
2022-11-14T20:08:13.229Z,13.73
2022-11-14T20:11:03.450Z,13.77
2022-11-14T20:13:50.698Z,13.76
2022-11-14T20:16:38.767Z,13.72
2022-11-14T20:19:25.039Z,13.67
2022-11-14T20:22:11.730Z,13.60
2022-11-14T20:24:57.858Z,13.53
2022-11-14T20:27:44.115Z,13.49
2022-11-14T20:30:30.230Z,13.44
2022-11-14T20:33:16.959Z,13.43
2022-11-14T20:36:10.839Z,13.34
2022-11-14T20:38:59.787Z,13.29
2022-11-14T20:41:45.790Z,13.24
2022-11-14T20:44:32.013Z,13.24
2022-11-14T20:47:18.489Z,13.23
2022-11-14T20:50:05.903Z,13.19
2022-11-14T20:52:51.932Z,13.15
2022-11-14T20:55:38.461Z,13.19
2022-11-14T20:58:24.490Z,13.21
2022-11-14T21:01:11.465Z,13.19
2022-11-14T21:03:58.629Z,13.13
2022-11-14T21:06:46.116Z,13.05
2022-11-14T21:09:32.838Z,13.01
2022-11-14T21:12:19.545Z,13.02
2022-11-14T21:15:07.504Z,13.03
2022-11-14T21:17:54.567Z,13.02
2022-11-14T21:20:40.427Z,13.01
2022-11-14T21:23:26.813Z,12.95
2022-11-14T21:26:19.076Z,12.86
2022-11-14T21:29:12.137Z,12.78
2022-11-14T21:32:01.709Z,12.73
2022-11-14T21:34:53.103Z,12.68
2022-11-14T21:37:38.927Z,12.67
2022-11-14T21:40:27.808Z,12.67
2022-11-14T21:43:15.750Z,12.65
2022-11-14T21:46:05.948Z,12.66
2022-11-14T21:48:52.856Z,12.67
2022-11-14T21:51:39.375Z,12.71
2022-11-14T21:54:27.743Z,12.80
2022-11-14T21:57:15.983Z,12.86
2022-11-14T22:00:02.736Z,12.86
2022-11-14T22:06:32.033Z,12.90
2022-11-14T22:10:28.383Z,12.90
2022-11-14T22:13:49.466Z,12.89
2022-11-14T22:17:38.174Z,12.94
2022-11-14T22:25:37.436Z,12.87
2022-11-14T22:28:54.861Z,12.92
2022-11-14T22:31:58.269Z,12.90
2022-11-14T22:35:11.150Z,12.85
2022-11-14T22:39:16.615Z,13.00
2022-11-14T22:43:35.927Z,13.16
2022-11-14T22:46:35.110Z,13.06
2022-11-14T22:49:21.514Z,13.07
2022-11-14T22:52:07.683Z,13.00
2022-11-14T22:54:57.142Z,12.89
2022-11-14T22:57:57.109Z,12.83
2022-11-14T23:01:05.720Z,12.76
2022-11-14T23:04:07.026Z,12.70
2022-11-14T23:06:59.775Z,12.71
2022-11-14T23:10:38.359Z,12.72
2022-11-14T23:14:19.622Z,12.71
2022-11-14T23:17:12.632Z,12.65
2022-11-14T23:20:28.680Z,12.61
2022-11-14T23:23:15.943Z,12.65
2022-11-14T23:26:37.926Z,12.70
2022-11-14T23:29:24.789Z,12.73
2022-11-14T23:32:10.937Z,12.80
2022-11-14T23:34:58.061Z,12.88
2022-11-14T23:38:09.262Z,12.84
2022-11-14T23:41:09.824Z,12.84
2022-11-14T23:44:07.956Z,12.81
2022-11-14T23:47:54.979Z,12.74
2022-11-14T23:50:42.224Z,12.72
2022-11-14T23:53:35.256Z,12.73
2022-11-14T23:56:26.716Z,12.70
2022-11-14T23:59:17.204Z,12.75
